Time,TemperatureF,DewpointF,PressureIn,WindDirection,WindDirectionDegrees,WindSpeedMPH,WindSpeedGustMPH,Humidity,HourlyPrecipIn,Conditions,Clouds,dailyrainin,SolarRadiationWatts/m^2,SoftwareType,DateUTC
2013-02-16 00:00:00,32.0,31.0,-100.00,WNW,294,0.0,1.0,94,-99.99,,,0.00,-0.200000,,2013-02-16 08:00:00,
2013-02-16 00:52:00,32.0,31.0,-100.00,WNW,294,0.0,1.0,94,-99.99,,,0.00,-0.200000,,2013-02-16 08:52:00,
2013-02-16 01:00:00,33.0,32.0,-100.00,North,3,0.0,1.0,98,-99.99,,,0.00,-0.200000,,2013-02-16 09:00:00,
2013-02-16 01:52:00,33.0,32.0,-100.00,North,3,0.0,1.0,98,-99.99,,,0.00,-0.200000,,2013-02-16 09:52:00,
2013-02-16 02:00:00,33.0,32.0,-100.00,West,274,0.0,1.0,98,-99.99,,,0.00,-1.500000,,2013-02-16 10:00:00,
2013-02-16 02:52:00,33.0,32.0,-100.00,West,274,0.0,1.0,98,-99.99,,,0.00,-1.500000,,2013-02-16 10:52:00,
2013-02-16 03:00:00,31.0,30.0,-100.00,WNW,294,0.0,1.0,99,-99.99,,,0.00,-0.200000,,2013-02-16 11:00:00,
2013-02-16 03:52:00,31.0,30.0,-100.00,WNW,294,0.0,1.0,99,-99.99,,,0.00,-0.200000,,2013-02-16 11:52:00,
2013-02-16 04:00:00,30.0,30.0,-100.00,WNW,286,0.0,2.0,98,-99.99,,,-99.99,-0.200000,,2013-02-16 12:00:00,
2013-02-16 04:52:00,30.0,30.0,-100.00,WNW,286,0.0,2.0,98,-99.99,,,-99.99,-0.200000,,2013-02-16 12:52:00,
2013-02-16 06:00:00,33.0,30.0,-100.00,SSE,151,1.0,3.0,90,-99.99,,,0.00,1.100000,,2013-02-16 14:00:00,
2013-02-16 06:52:00,33.0,30.0,-100.00,SSE,151,1.0,3.0,90,-99.99,,,0.00,1.100000,,2013-02-16 14:52:00,
2013-02-16 07:00:00,32.0,29.0,-100.00,SSE,161,1.0,4.0,90,-99.99,,,0.00,0.200000,,2013-02-16 15:00:00,
2013-02-16 07:52:00,32.0,29.0,-100.00,SSE,161,1.0,4.0,90,-99.99,,,0.00,0.200000,,2013-02-16 15:52:00,
2013-02-16 08:00:00,35.0,33.0,-100.00,West,266,2.0,8.0,92,-99.99,,,0.00,10.800000,,2013-02-16 16:00:00,
2013-02-16 08:52:00,35.0,33.0,-100.00,West,266,2.0,8.0,92,-99.99,,,0.00,10.800000,,2013-02-16 16:52:00,
2013-02-16 09:00:00,35.0,33.0,-100.00,SSW,197,5.0,9.0,94,-99.99,,,0.00,35.799999,,2013-02-16 17:00:00,
2013-02-16 09:52:00,35.0,33.0,-100.00,SSW,197,5.0,9.0,94,-99.99,,,0.00,35.799999,,2013-02-16 17:52:00,
2013-02-16 10:00:00,35.0,32.0,-100.00,South,171,5.0,9.0,90,-99.99,,,0.00,111.400002,,2013-02-16 18:00:00,
2013-02-16 10:52:00,35.0,32.0,-100.00,South,171,5.0,9.0,90,-99.99,,,0.00,111.400002,,2013-02-16 18:52:00,
2013-02-16 11:00:00,36.0,30.0,-100.00,West,279,6.0,10.0,79,-99.99,,,-99.99,281.100006,,2013-02-16 19:00:00,
2013-02-16 11:52:00,36.0,30.0,-100.00,West,279,6.0,10.0,79,-99.99,,,-99.99,281.100006,,2013-02-16 19:52:00,
2013-02-16 12:00:00,37.0,29.0,-100.00,WSW,251,6.0,10.0,71,-99.99,,,0.00,467.000000,,2013-02-16 20:00:00,
2013-02-16 12:52:00,37.0,29.0,-100.00,WSW,251,6.0,10.0,71,-99.99,,,0.00,467.000000,,2013-02-16 20:52:00,
2013-02-16 13:00:00,35.0,25.0,-100.00,South,176,5.0,10.0,65,-99.99,,,-99.99,484.600006,,2013-02-16 21:00:00,
2013-02-16 13:52:00,35.0,25.0,-100.00,South,176,5.0,10.0,65,-99.99,,,-99.99,484.600006,,2013-02-16 21:52:00,
2013-02-16 14:00:00,36.0,28.0,-100.00,SSW,210,5.0,10.0,71,-99.99,,,-99.99,471.899994,,2013-02-16 22:00:00,
2013-02-16 14:52:00,36.0,28.0,-100.00,SSW,210,5.0,10.0,71,-99.99,,,-99.99,471.899994,,2013-02-16 22:52:00,
2013-02-16 15:00:00,31.0,25.0,-100.00,SSW,194,6.0,10.0,77,-99.99,,,0.00,305.299988,,2013-02-16 23:00:00,
2013-02-16 16:00:00,29.0,24.0,-100.00,SW,223,6.0,13.0,81,-99.99,,,-99.99,158.899994,,2013-02-17 00:00:00,
2013-02-16 16:52:00,29.0,24.0,-100.00,SW,223,6.0,13.0,81,-99.99,,,-99.99,158.899994,,2013-02-17 00:52:00,
2013-02-16 17:00:00,28.0,25.0,-100.00,SSW,193,5.0,10.0,86,-99.99,,,-99.99,40.700001,,2013-02-17 01:00:00,
2013-02-16 17:52:00,28.0,25.0,-100.00,SSW,193,5.0,10.0,86,-99.99,,,-99.99,40.700001,,2013-02-17 01:52:00,
2013-02-16 18:00:00,28.0,24.0,-100.00,WSW,248,7.0,11.0,84,-99.99,,,0.00,2.900000,,2013-02-17 02:00:00,
2013-02-16 18:52:00,28.0,24.0,-100.00,WSW,248,7.0,11.0,84,-99.99,,,0.00,2.900000,,2013-02-17 02:52:00,
2013-02-16 19:00:00,27.0,24.0,-100.00,SW,221,5.0,9.0,89,-99.99,,,0.00,-0.200000,,2013-02-17 03:00:00,
2013-02-16 19:52:00,27.0,24.0,-100.00,SW,221,5.0,9.0,89,-99.99,,,0.00,-0.200000,,2013-02-17 03:52:00,
2013-02-16 20:00:00,27.0,25.0,-100.00,WSW,238,4.0,7.0,92,-99.99,,,0.00,-0.200000,,2013-02-17 04:00:00,
2013-02-16 20:52:00,27.0,25.0,-100.00,WSW,238,4.0,7.0,92,-99.99,,,0.00,-0.200000,,2013-02-17 04:52:00,
2013-02-16 22:00:00,27.0,25.0,-100.00,SSW,196,4.0,8.0,93,-99.99,,,0.00,-0.200000,,2013-02-17 06:00:00,
2013-02-16 22:52:00,27.0,25.0,-100.00,SSW,196,4.0,8.0,93,-99.99,,,0.00,-0.200000,,2013-02-17 06:52:00,
2013-02-16 23:00:00,26.0,24.0,-100.00,WSW,249,5.0,9.0,91,-99.99,,,0.00,-0.200000,,2013-02-17 07:00:00,
2013-02-16 23:52:00,26.0,24.0,-100.00,WSW,249,5.0,9.0,91,-99.99,,,0.00,-0.200000,,2013-02-17 07:52:00,